createdAt,value
2018-07-12T00:00:25.773Z,100467.35
2018-07-12T00:02:53.605Z,100465.98
2018-07-12T00:05:21.553Z,100467.54
2018-07-12T00:07:49.940Z,100468.84
2018-07-12T00:10:17.741Z,100471.81
2018-07-12T00:12:45.558Z,100476.64
2018-07-12T00:15:13.572Z,100465.35
2018-07-12T00:17:41.845Z,100467.78
2018-07-12T00:20:10.126Z,100463.23
2018-07-12T00:22:37.905Z,100465.38
2018-07-12T00:25:05.786Z,100467.54
2018-07-12T00:27:33.693Z,100462.14
2018-07-12T00:30:01.532Z,100465.63
2018-07-12T00:32:29.336Z,100458.15
2018-07-12T00:34:57.197Z,100454.66
2018-07-12T00:37:25.072Z,100457.84
2018-07-12T00:39:53.301Z,100450.25
2018-07-12T00:42:21.719Z,100451.31
2018-07-12T00:44:49.594Z,100444.08
2018-07-12T00:47:17.524Z,100440.06
2018-07-12T00:49:45.332Z,100441.16
2018-07-12T00:52:13.156Z,100443.08
2018-07-12T00:54:41.203Z,100440.96
2018-07-12T00:57:09.402Z,100445.86
2018-07-12T00:59:37.196Z,100438.03
2018-07-12T01:02:05.143Z,100440.96
2018-07-12T01:04:32.967Z,100442.86
2018-07-12T01:07:00.830Z,100439.63
2018-07-12T01:09:29.444Z,100449.54
2018-07-12T01:11:57.378Z,100442.55
2018-07-12T01:14:25.193Z,100440.96
2018-07-12T01:16:53.071Z,100450.60
2018-07-12T01:19:20.935Z,100448.45
2018-07-12T01:21:48.753Z,100446.52
2018-07-12T01:24:16.579Z,100451.31
2018-07-12T01:26:44.390Z,100447.83
2018-07-12T01:29:12.204Z,100446.48
2018-07-12T01:31:40.056Z,100446.17
2018-07-12T01:34:07.912Z,100440.24
2018-07-12T01:36:35.692Z,100443.92
2018-07-12T01:39:03.720Z,100443.64
2018-07-12T01:41:31.761Z,100449.25
2018-07-12T01:43:59.731Z,100452.15
2018-07-12T01:46:27.554Z,100452.64
2018-07-12T01:48:55.484Z,100450.00
2018-07-12T01:51:23.470Z,100453.36
2018-07-12T01:53:51.273Z,100454.95
2018-07-12T01:56:19.117Z,100453.82
2018-07-12T01:58:46.950Z,100454.06
2018-07-12T02:01:14.757Z,100458.66
2018-07-12T02:03:42.680Z,100447.36
2018-07-12T02:06:10.505Z,100450.71
2018-07-12T02:08:38.307Z,100450.16
2018-07-12T02:11:06.388Z,100444.38
2018-07-12T02:13:34.344Z,100441.50
2018-07-12T02:16:02.164Z,100430.38
2018-07-12T02:18:29.974Z,100428.62
2018-07-12T02:20:57.831Z,100425.84
2018-07-12T02:23:25.759Z,100442.94
2018-07-12T02:25:53.559Z,100445.09
2018-07-12T02:28:21.386Z,100438.95
2018-07-12T02:30:49.345Z,100436.14
2018-07-12T02:33:17.232Z,100427.25
2018-07-12T02:35:45.062Z,100427.53
2018-07-12T02:38:12.969Z,100429.86
2018-07-12T02:40:40.773Z,100429.16
2018-07-12T02:43:08.660Z,100425.03
2018-07-12T02:45:36.744Z,100422.88
2018-07-12T02:48:04.582Z,100424.64
2018-07-12T02:50:32.503Z,100427.78
2018-07-12T02:53:00.924Z,100424.49
2018-07-12T02:55:28.897Z,100422.36
2018-07-12T02:57:56.748Z,100424.16
2018-07-12T03:00:24.561Z,100429.05
2018-07-12T03:02:53.394Z,100437.44
2018-07-12T03:05:21.209Z,100445.80
2018-07-12T03:07:49.114Z,100442.50
2018-07-12T03:10:16.964Z,100439.06
2018-07-12T03:12:44.781Z,100440.92
2018-07-12T03:15:12.667Z,100446.69
2018-07-12T03:17:40.576Z,100443.55
2018-07-12T03:20:08.513Z,100444.77
2018-07-12T03:22:37.042Z,100446.68
2018-07-12T03:25:04.928Z,100444.70
2018-07-12T03:27:32.768Z,100445.92
2018-07-12T03:30:00.727Z,100449.12
2018-07-12T03:32:28.762Z,100448.62
2018-07-12T03:34:56.672Z,100449.94
2018-07-12T03:37:24.499Z,100451.63
2018-07-12T03:39:52.306Z,100447.28
2018-07-12T03:42:20.124Z,100448.55
2018-07-12T03:44:47.938Z,100444.17
2018-07-12T03:47:15.765Z,100439.77
2018-07-12T03:49:43.650Z,100445.83
2018-07-12T03:52:11.853Z,100445.62
2018-07-12T03:54:40.430Z,100442.73
2018-07-12T03:57:08.299Z,100441.34
2018-07-12T03:59:36.071Z,100451.35
2018-07-12T04:02:04.080Z,100449.17
2018-07-12T04:04:32.272Z,100443.19
2018-07-12T04:07:00.255Z,100450.63
2018-07-12T04:09:28.090Z,100451.03
2018-07-12T04:11:55.909Z,100452.95
2018-07-12T04:14:24.397Z,100455.81
2018-07-12T04:16:52.261Z,100448.11
2018-07-12T04:19:20.049Z,100455.86
2018-07-12T04:21:47.977Z,100453.54
2018-07-12T04:24:15.855Z,100453.25
2018-07-12T04:26:43.964Z,100455.27
2018-07-12T04:29:11.783Z,100459.05
2018-07-12T04:31:39.594Z,100465.62
2018-07-12T04:34:07.415Z,100467.41
2018-07-12T04:36:35.307Z,100469.83
2018-07-12T04:39:03.259Z,100468.34
2018-07-12T04:41:31.149Z,100468.31
2018-07-12T04:43:59.013Z,100475.44
2018-07-12T04:46:26.832Z,100476.63
2018-07-12T04:48:54.629Z,100474.91
2018-07-12T04:51:22.426Z,100477.14
2018-07-12T04:53:50.299Z,100484.05
2018-07-12T04:56:18.071Z,100481.41
2018-07-12T04:58:45.923Z,100480.98
2018-07-12T05:01:13.754Z,100487.33
2018-07-12T05:03:41.597Z,100492.52
2018-07-12T05:06:09.384Z,100491.89
2018-07-12T05:08:37.238Z,100494.28
2018-07-12T05:11:05.125Z,100491.50
2018-07-12T05:13:33.106Z,100489.41
2018-07-12T05:16:00.915Z,100495.02
2018-07-12T05:18:28.741Z,100488.85
2018-07-12T05:20:56.600Z,100485.86
2018-07-12T05:23:24.463Z,100482.91
2018-07-12T05:25:52.262Z,100487.61
2018-07-12T05:28:20.079Z,100491.47
2018-07-12T05:30:48.318Z,100499.38
2018-07-12T05:33:16.330Z,100499.38
2018-07-12T05:35:45.951Z,100502.75
2018-07-12T05:38:15.605Z,100502.98
2018-07-12T05:40:45.322Z,100508.34
2018-07-12T05:43:15.166Z,100515.37
2018-07-12T05:45:44.852Z,100510.68
2018-07-12T05:48:14.536Z,100511.70
2018-07-12T05:50:48.110Z,100513.23
2018-07-12T05:53:19.095Z,100512.41
2018-07-12T05:55:48.694Z,100516.29
2018-07-12T05:58:18.273Z,100514.91
2018-07-12T06:00:47.961Z,100524.83
2018-07-12T06:03:17.491Z,100529.48
2018-07-12T06:05:47.113Z,100531.28
2018-07-12T06:08:16.752Z,100531.95
2018-07-12T06:10:46.919Z,100531.78
2018-07-12T06:13:16.668Z,100528.37
2018-07-12T06:15:46.772Z,100528.71
2018-07-12T06:18:16.357Z,100530.48
2018-07-12T06:20:46.007Z,100526.45
2018-07-12T06:23:15.601Z,100528.61
2018-07-12T06:25:45.301Z,100531.44
2018-07-12T06:28:15.113Z,100536.19
2018-07-12T06:30:44.691Z,100537.31
2018-07-12T06:33:14.402Z,100534.73
2018-07-12T06:35:45.485Z,100537.06
2018-07-12T06:38:15.828Z,100534.34
2018-07-12T06:40:46.258Z,100535.92
2018-07-12T06:43:15.833Z,100540.97
2018-07-12T06:45:45.564Z,100541.67
2018-07-12T06:48:15.248Z,100537.09
2018-07-12T06:50:44.986Z,100539.34
2018-07-12T06:53:14.676Z,100528.84
2018-07-12T06:55:44.958Z,100535.02
2018-07-12T06:58:15.330Z,100541.83
2018-07-12T07:00:44.997Z,100537.52
2018-07-12T07:03:14.674Z,100542.07
2018-07-12T07:05:44.403Z,100535.44
2018-07-12T07:08:14.609Z,100539.02
2018-07-12T07:10:44.329Z,100534.09
2018-07-12T07:13:14.105Z,100537.27
2018-07-12T07:15:43.745Z,100540.92
2018-07-12T07:18:14.084Z,100540.23
2018-07-12T07:20:43.802Z,100547.52
2018-07-12T07:23:13.583Z,100546.31
2018-07-12T07:25:43.327Z,100547.67
2018-07-12T07:28:13.264Z,100551.05
2018-07-12T07:30:42.912Z,100547.78
2018-07-12T07:33:12.980Z,100551.66
2018-07-12T07:35:42.781Z,100558.64
2018-07-12T07:38:12.476Z,100557.12
2018-07-12T07:40:42.215Z,100548.98
2018-07-12T07:43:11.889Z,100546.56
2018-07-12T07:45:41.470Z,100548.51
2018-07-12T07:48:11.102Z,100551.48
2018-07-12T07:50:40.742Z,100552.41
2018-07-12T07:53:10.028Z,100551.73
2018-07-12T07:55:39.691Z,100550.34
2018-07-12T07:58:09.296Z,100551.81
2018-07-12T08:00:38.932Z,100554.55
2018-07-12T08:03:08.752Z,100553.66
2018-07-12T08:05:38.413Z,100559.09
2018-07-12T08:08:08.167Z,100560.69
2018-07-12T08:10:37.849Z,100567.48
2018-07-12T08:13:07.539Z,100565.54
2018-07-12T08:15:37.247Z,100563.31
2018-07-12T08:18:07.365Z,100561.86
2018-07-12T08:20:37.088Z,100555.05
2018-07-12T08:23:07.154Z,100551.88
2018-07-12T08:25:36.976Z,100556.52
2018-07-12T08:28:24.643Z,100556.31
2018-07-12T08:30:54.589Z,100551.94
2018-07-12T08:33:24.544Z,100555.36
2018-07-12T08:35:54.256Z,100548.79
2018-07-12T08:38:24.014Z,100554.90
2018-07-12T08:40:53.664Z,100553.38
2018-07-12T08:43:23.397Z,100545.28
2018-07-12T08:45:53.062Z,100542.34
2018-07-12T08:48:22.828Z,100553.97
2018-07-12T08:50:52.485Z,100548.20
2018-07-12T08:53:22.209Z,100548.63
2018-07-12T08:55:51.903Z,100546.31
2018-07-12T08:58:21.596Z,100546.38
2018-07-12T09:00:51.232Z,100534.38
2018-07-12T09:03:21.072Z,100543.09
2018-07-12T09:05:51.385Z,100537.35
2018-07-12T09:08:21.760Z,100536.88
2018-07-12T09:10:51.415Z,100543.25
2018-07-12T09:13:21.075Z,100541.67
2018-07-12T09:15:50.877Z,100549.95
2018-07-12T09:18:20.631Z,100544.80
2018-07-12T09:20:50.486Z,100545.61
2018-07-12T09:23:20.839Z,100548.87
2018-07-12T09:25:50.467Z,100551.25
2018-07-12T09:28:20.136Z,100549.64
2018-07-12T09:30:49.919Z,100558.11
2018-07-12T09:33:19.508Z,100555.77
2018-07-12T09:35:49.195Z,100553.97
2018-07-12T09:38:45.977Z,100555.44
2018-07-12T09:41:15.731Z,100556.77
2018-07-12T09:43:45.904Z,100550.37
2018-07-12T09:46:15.858Z,100547.33
2018-07-12T09:48:48.715Z,100552.29
2018-07-12T09:51:18.370Z,100553.84
2018-07-12T09:53:48.588Z,100552.70
2018-07-12T09:56:18.443Z,100554.10
2018-07-12T09:58:48.092Z,100552.70
2018-07-12T10:02:26.699Z,100547.34
2018-07-12T10:04:56.427Z,100551.38
2018-07-12T10:07:31.355Z,100548.26
2018-07-12T10:10:01.018Z,100555.19
2018-07-12T10:13:37.321Z,100549.75
2018-07-12T10:16:12.239Z,100548.55
2018-07-12T10:18:41.909Z,100553.20
2018-07-12T10:21:11.543Z,100547.38
2018-07-12T10:23:41.219Z,100545.83
2018-07-12T10:26:11.026Z,100543.61
2018-07-12T10:28:40.792Z,100551.45
2018-07-12T10:31:10.403Z,100552.95
2018-07-12T10:33:40.060Z,100549.58
2018-07-12T10:36:09.714Z,100549.97
2018-07-12T10:38:39.349Z,100553.51
2018-07-12T10:41:09.134Z,100542.66
2018-07-12T10:43:38.880Z,100539.67
2018-07-12T10:46:08.550Z,100543.72
2018-07-12T10:48:38.222Z,100544.84
2018-07-12T10:51:08.139Z,100544.66
2018-07-12T10:53:37.818Z,100543.98
2018-07-12T10:56:07.508Z,100543.03
2018-07-12T10:58:37.133Z,100539.02
2018-07-12T11:01:06.873Z,100539.00
2018-07-12T11:03:36.610Z,100535.92
2018-07-12T11:06:06.472Z,100541.16
2018-07-12T11:08:36.074Z,100528.67
2018-07-12T11:11:05.717Z,100531.25
2018-07-12T11:13:52.035Z,100532.07
2018-07-12T11:16:22.136Z,100523.87
2018-07-12T11:18:51.755Z,100535.44
2018-07-12T11:21:21.905Z,100528.66
2018-07-12T11:23:51.517Z,100522.71
2018-07-12T11:26:21.520Z,100521.89
2018-07-12T11:28:51.433Z,100519.66
2018-07-12T11:31:21.495Z,100515.13
2018-07-12T11:33:51.915Z,100521.13
2018-07-12T11:36:21.866Z,100520.06
2018-07-12T11:38:51.181Z,100518.75
2018-07-12T11:41:21.492Z,100517.96
2018-07-12T11:43:51.168Z,100518.22
2018-07-12T11:46:21.274Z,100515.55
2018-07-12T11:48:50.925Z,100514.25
2018-07-12T11:51:20.726Z,100509.86
2018-07-12T11:53:50.312Z,100518.75
2018-07-12T11:56:19.889Z,100515.13
2018-07-12T11:58:49.572Z,100511.63
2018-07-12T12:01:19.259Z,100519.15
2018-07-12T12:03:48.869Z,100508.59
2018-07-12T12:06:18.526Z,100512.44
2018-07-12T12:08:48.098Z,100512.05
2018-07-12T12:11:17.738Z,100521.54
2018-07-12T12:13:47.366Z,100512.05
2018-07-12T12:16:17.111Z,100515.06
2018-07-12T12:18:46.846Z,100518.27
2018-07-12T12:21:16.413Z,100524.48
2018-07-12T12:23:46.061Z,100518.64
2018-07-12T12:26:15.708Z,100516.98
2018-07-12T12:28:45.350Z,100523.27
2018-07-12T12:31:14.989Z,100515.22
2018-07-12T12:33:44.703Z,100517.05
2018-07-12T12:36:14.392Z,100515.02
2018-07-12T12:38:43.951Z,100510.75
2018-07-12T12:41:13.632Z,100512.45
2018-07-12T12:43:43.071Z,100517.54
2018-07-12T12:46:12.810Z,100523.82
2018-07-12T12:48:42.592Z,100519.53
2018-07-12T12:51:12.329Z,100521.46
2018-07-12T12:53:42.056Z,100519.52
2018-07-12T12:56:11.651Z,100516.91
2018-07-12T12:58:41.247Z,100510.25
2018-07-12T13:01:10.925Z,100510.66
2018-07-12T13:03:40.563Z,100509.60
2018-07-12T13:06:10.249Z,100512.86
2018-07-12T13:08:39.875Z,100510.50
2018-07-12T13:11:09.515Z,100516.34
2018-07-12T13:13:39.148Z,100518.59
2018-07-12T13:16:08.771Z,100525.88
2018-07-12T13:18:38.389Z,100526.92
2018-07-12T13:21:08.284Z,100529.69
2018-07-12T13:23:37.942Z,100531.84
2018-07-12T13:26:07.590Z,100539.53
2018-07-12T13:28:37.178Z,100535.42
2018-07-12T13:31:06.837Z,100533.11
2018-07-12T13:33:36.460Z,100530.44
2018-07-12T13:36:06.124Z,100533.61
2018-07-12T13:38:35.478Z,100528.23
2018-07-12T13:41:05.313Z,100527.69
2018-07-12T13:43:34.931Z,100530.65
2018-07-12T13:46:04.686Z,100533.00
2018-07-12T13:48:34.557Z,100534.22
2018-07-12T13:51:04.402Z,100536.18
2018-07-12T13:53:34.468Z,100535.03
2018-07-12T13:56:04.297Z,100535.20
2018-07-12T13:58:34.407Z,100525.92
2018-07-12T14:01:04.092Z,100514.23
2018-07-12T14:03:34.233Z,100520.92
2018-07-12T14:06:03.917Z,100519.41
2018-07-12T14:08:34.026Z,100521.86
2018-07-12T14:11:03.877Z,100520.27
2018-07-12T14:13:34.080Z,100520.95
2018-07-12T14:16:03.697Z,100516.13
2018-07-12T14:18:33.587Z,100518.40
2018-07-12T14:21:03.184Z,100517.74
2018-07-12T14:23:32.861Z,100514.72
2018-07-12T14:26:03.248Z,100514.74
2018-07-12T14:28:33.246Z,100518.44
2018-07-12T14:31:02.945Z,100510.34
2018-07-12T14:33:32.606Z,100516.93
2018-07-12T14:36:02.268Z,100515.05
2018-07-12T14:38:31.936Z,100520.60
2018-07-12T14:41:01.976Z,100517.23
2018-07-12T14:43:31.707Z,100510.05
2018-07-12T14:46:01.460Z,100518.94
2018-07-12T14:48:31.063Z,100517.22
2018-07-12T14:51:00.818Z,100518.34
2018-07-12T14:53:30.475Z,100525.72
2018-07-12T14:56:00.219Z,100526.17
2018-07-12T14:58:29.963Z,100531.30
2018-07-12T15:00:59.635Z,100533.22
2018-07-12T15:03:29.235Z,100531.03
2018-07-12T15:05:58.878Z,100541.41
2018-07-12T15:08:28.641Z,100540.82
2018-07-12T15:11:01.326Z,100539.73
2018-07-12T15:13:31.820Z,100541.65
2018-07-12T15:16:04.466Z,100552.59
2018-07-12T15:18:34.068Z,100547.49
2018-07-12T15:21:03.669Z,100547.77
2018-07-12T15:23:33.337Z,100546.95
2018-07-12T15:26:03.485Z,100546.15
2018-07-12T15:28:33.340Z,100546.14
2018-07-12T15:31:02.960Z,100542.63
2018-07-12T15:33:32.614Z,100541.27
2018-07-12T15:36:02.239Z,100544.25
2018-07-12T15:38:31.899Z,100536.69
2018-07-12T15:41:01.655Z,100540.48
2018-07-12T15:43:31.340Z,100540.20
2018-07-12T15:46:00.991Z,100541.83
2018-07-12T15:48:30.595Z,100547.25
2018-07-12T15:51:00.267Z,100542.08
2018-07-12T15:53:29.909Z,100546.44
2018-07-12T15:55:59.607Z,100544.50
2018-07-12T15:58:29.509Z,100542.04
2018-07-12T16:00:59.179Z,100546.81
2018-07-12T16:03:28.929Z,100538.12
2018-07-12T16:05:58.713Z,100537.70
2018-07-12T16:08:28.412Z,100538.47
2018-07-12T16:10:58.158Z,100537.05
2018-07-12T16:13:27.811Z,100531.73
2018-07-12T16:15:57.495Z,100532.56
2018-07-12T16:18:27.754Z,100532.84
2018-07-12T16:20:57.411Z,100537.09
2018-07-12T16:23:27.024Z,100530.92
2018-07-12T16:25:56.835Z,100530.15
2018-07-12T16:28:26.567Z,100530.13
2018-07-12T16:30:56.529Z,100527.12
2018-07-12T16:33:26.397Z,100537.48
2018-07-12T16:35:56.057Z,100533.39
2018-07-12T16:38:25.505Z,100531.24
2018-07-12T16:40:55.132Z,100532.09
2018-07-12T16:43:24.768Z,100531.55
2018-07-12T16:45:54.447Z,100537.23
2018-07-12T16:48:24.173Z,100534.48
2018-07-12T16:50:53.843Z,100532.86
2018-07-12T16:53:23.525Z,100533.70
2018-07-12T16:55:56.065Z,100533.44
2018-07-12T16:58:25.842Z,100526.67
2018-07-12T17:00:55.437Z,100532.02
2018-07-12T17:03:25.149Z,100530.98
2018-07-12T17:05:54.742Z,100533.09
2018-07-12T17:08:24.425Z,100540.47
2018-07-12T17:10:53.769Z,100531.98
2018-07-12T17:13:23.403Z,100539.36
2018-07-12T17:15:53.060Z,100539.34
2018-07-12T17:18:22.733Z,100546.94
2018-07-12T17:20:52.369Z,100548.87
2018-07-12T17:23:22.015Z,100548.80
2018-07-12T17:25:52.029Z,100541.00
2018-07-12T17:28:21.665Z,100547.44
2018-07-12T17:30:51.837Z,100543.95
2018-07-12T17:33:21.792Z,100539.91
2018-07-12T17:35:51.801Z,100544.27
2018-07-12T17:38:21.412Z,100541.82
2018-07-12T17:40:54.256Z,100541.80
2018-07-12T17:43:23.541Z,100539.67
2018-07-12T17:45:53.368Z,100539.95
2018-07-12T17:48:22.982Z,100538.84
2018-07-12T17:50:52.977Z,100540.19
2018-07-12T17:53:22.577Z,100541.82
2018-07-12T17:55:52.545Z,100546.95
2018-07-12T17:58:22.184Z,100545.89
2018-07-12T18:00:52.242Z,100542.89
2018-07-12T18:03:21.921Z,100539.13
2018-07-12T18:05:52.045Z,100550.22
2018-07-12T18:08:21.705Z,100555.89
2018-07-12T18:10:51.762Z,100553.72
2018-07-12T18:13:21.387Z,100551.83
2018-07-12T18:15:51.093Z,100553.44
2018-07-12T18:18:20.914Z,100552.87
2018-07-12T18:20:50.621Z,100551.54
2018-07-12T18:23:20.364Z,100556.42
2018-07-12T18:25:49.632Z,100551.03
2018-07-12T18:28:19.292Z,100556.17
2018-07-12T18:30:49.305Z,100549.69
2018-07-12T18:33:19.099Z,100556.97
2018-07-12T18:35:48.880Z,100555.36
2018-07-12T18:38:18.521Z,100556.72
2018-07-12T18:40:48.282Z,100565.11
2018-07-12T18:43:17.921Z,100559.96
2018-07-12T18:45:47.710Z,100566.42
2018-07-12T18:48:17.419Z,100566.72
2018-07-12T18:50:47.076Z,100566.16
2018-07-12T18:53:16.921Z,100564.54
2018-07-12T18:55:46.633Z,100566.97
2018-07-12T18:58:16.327Z,100569.69
2018-07-12T19:00:45.977Z,100563.70
2018-07-12T19:03:15.620Z,100563.69
2018-07-12T19:05:45.272Z,100565.33
2018-07-12T19:08:14.879Z,100570.64
2018-07-12T19:10:44.499Z,100575.27
2018-07-12T19:13:14.170Z,100573.95
2018-07-12T19:15:43.828Z,100580.11
2018-07-12T19:18:13.533Z,100577.97
2018-07-12T19:20:43.217Z,100579.58
2018-07-12T19:23:12.915Z,100579.84
2018-07-12T19:25:42.586Z,100580.09
2018-07-12T19:28:12.310Z,100582.27
2018-07-12T19:30:42.037Z,100584.68
2018-07-12T19:33:11.419Z,100580.91
2018-07-12T19:35:41.082Z,100579.00
2018-07-12T19:38:10.794Z,100586.00
2018-07-12T19:40:40.565Z,100586.75
2018-07-12T19:43:10.317Z,100588.02
2018-07-12T19:45:40.064Z,100592.89
2018-07-12T19:48:09.741Z,100596.41
2018-07-12T19:50:39.441Z,100594.52
2018-07-12T19:53:09.162Z,100601.23
2018-07-12T19:55:38.827Z,100601.99
2018-07-12T19:58:08.487Z,100601.69
2018-07-12T20:00:38.133Z,100609.19
2018-07-12T20:03:07.881Z,100610.00
2018-07-12T20:05:37.592Z,100614.58
2018-07-12T20:08:07.324Z,100614.25
2018-07-12T20:10:36.979Z,100615.33
2018-07-12T20:13:06.765Z,100618.30
2018-07-12T20:15:36.885Z,100625.11
2018-07-12T20:18:06.737Z,100621.23
2018-07-12T20:20:36.357Z,100623.85
2018-07-12T20:23:09.426Z,100631.14
2018-07-12T20:25:39.065Z,100627.36
2018-07-12T20:28:08.784Z,100636.80
2018-07-12T20:30:38.464Z,100635.34
2018-07-12T20:33:08.151Z,100630.72
2018-07-12T20:35:37.827Z,100634.75
2018-07-12T20:38:09.105Z,100636.69
2018-07-12T20:40:39.017Z,100637.00
2018-07-12T20:43:08.860Z,100637.80
2018-07-12T20:45:38.704Z,100642.53
2018-07-12T20:48:09.629Z,100646.53
2018-07-12T20:50:39.373Z,100649.49
2018-07-12T20:53:09.769Z,100650.75
2018-07-12T20:55:39.832Z,100654.28
2018-07-12T20:58:09.956Z,100655.58
2018-07-12T21:00:39.777Z,100660.14
2018-07-12T21:03:09.534Z,100661.63
2018-07-12T21:05:39.415Z,100673.74
2018-07-12T21:08:09.125Z,100671.48
2018-07-12T21:10:38.883Z,100672.98
2018-07-12T21:13:08.714Z,100675.84
2018-07-12T21:15:38.376Z,100671.31
2018-07-12T21:18:08.033Z,100674.59
2018-07-12T21:20:37.667Z,100673.20
2018-07-12T21:23:08.069Z,100672.13
2018-07-12T21:25:37.776Z,100672.06
2018-07-12T21:28:07.979Z,100675.50
2018-07-12T21:30:37.555Z,100675.84
2018-07-12T21:33:07.420Z,100676.03
2018-07-12T21:35:37.024Z,100677.98
2018-07-12T21:38:06.745Z,100682.66
2018-07-12T21:40:36.626Z,100681.30
2018-07-12T21:43:06.645Z,100683.14
2018-07-12T21:45:36.493Z,100687.63
2018-07-12T21:48:06.220Z,100691.14
2018-07-12T21:50:35.903Z,100691.56
2018-07-12T21:53:05.910Z,100696.52
2018-07-12T21:55:35.706Z,100698.00
2018-07-12T21:58:05.356Z,100694.50
2018-07-12T22:00:35.073Z,100694.70
2018-07-12T22:03:04.874Z,100699.83
2018-07-12T22:05:34.492Z,100695.98
2018-07-12T22:08:17.900Z,100693.95
2018-07-12T22:10:48.758Z,100698.25
2018-07-12T22:13:19.118Z,100701.84
2018-07-12T22:15:48.863Z,100701.56
2018-07-12T22:18:18.636Z,100700.09
2018-07-12T22:20:48.403Z,100702.78
2018-07-12T22:23:18.229Z,100711.61
2018-07-12T22:25:47.904Z,100706.70
2018-07-12T22:28:17.661Z,100702.88
2018-07-12T22:30:47.608Z,100705.13
2018-07-12T22:33:17.536Z,100707.23
2018-07-12T22:35:47.283Z,100707.38
2018-07-12T22:38:17.045Z,100701.45
2018-07-12T22:40:46.638Z,100707.14
2018-07-12T22:43:16.737Z,100715.92
2018-07-12T22:45:46.310Z,100719.77
2018-07-12T22:48:16.284Z,100716.73
2018-07-12T22:50:45.761Z,100714.22
2018-07-12T22:53:15.539Z,100715.25
2018-07-12T22:55:45.176Z,100718.47
2018-07-12T22:58:14.883Z,100713.66
2018-07-12T23:00:44.471Z,100711.28
2018-07-12T23:03:14.075Z,100708.73
2018-07-12T23:05:43.639Z,100705.52
2018-07-12T23:08:13.224Z,100706.17
2018-07-12T23:10:42.867Z,100707.83
2018-07-12T23:13:12.485Z,100706.55
2018-07-12T23:15:42.081Z,100699.24
2018-07-12T23:18:11.633Z,100704.83
2018-07-12T23:20:41.841Z,100698.84
2018-07-12T23:23:11.488Z,100705.77
2018-07-12T23:25:41.116Z,100700.63
2018-07-12T23:28:10.759Z,100705.04
2018-07-12T23:30:40.360Z,100705.97
2018-07-12T23:33:09.934Z,100708.52
2018-07-12T23:35:39.524Z,100705.16
2018-07-12T23:38:09.138Z,100696.75
2018-07-12T23:40:38.787Z,100699.23
2018-07-12T23:43:08.366Z,100697.08
2018-07-12T23:45:38.027Z,100699.56
2018-07-12T23:48:07.712Z,100697.16
2018-07-12T23:50:37.199Z,100700.27
2018-07-12T23:53:06.810Z,100703.44
2018-07-12T23:55:36.573Z,100710.61
2018-07-12T23:58:06.559Z,100706.55
